sensor_id;sensor_type;location;lat;lon;timestamp;pressure;altitude;pressure_sealevel;temperature;humidity
54562;BME280;69047;53.358;-1.486;2023-08-08T00:00:48;100479.72;;;13.93;63.58
54562;BME280;69047;53.358;-1.486;2023-08-08T00:03:14;100480.81;;;13.97;63.37
54562;BME280;69047;53.358;-1.486;2023-08-08T00:05:39;100485.69;;;14.00;62.70
54562;BME280;69047;53.358;-1.486;2023-08-08T00:08:05;100489.78;;;13.97;62.35
54562;BME280;69047;53.358;-1.486;2023-08-08T00:10:31;100486.72;;;14.14;61.98
54562;BME280;69047;53.358;-1.486;2023-08-08T00:12:57;100481.31;;;14.04;61.81
54562;BME280;69047;53.358;-1.486;2023-08-08T00:15:22;100487.28;;;14.11;61.57
54562;BME280;69047;53.358;-1.486;2023-08-08T00:17:48;100478.03;;;14.12;61.19
54562;BME280;69047;53.358;-1.486;2023-08-08T00:20:15;100489.19;;;14.15;61.08
54562;BME280;69047;53.358;-1.486;2023-08-08T00:22:41;100488.94;;;14.12;61.07
54562;BME280;69047;53.358;-1.486;2023-08-08T00:25:07;100486.47;;;14.10;61.17
54562;BME280;69047;53.358;-1.486;2023-08-08T00:27:32;100500.66;;;14.02;61.48
54562;BME280;69047;53.358;-1.486;2023-08-08T00:29:59;100503.41;;;13.92;61.81
54562;BME280;69047;53.358;-1.486;2023-08-08T00:32:24;100491.44;;;13.93;61.71
54562;BME280;69047;53.358;-1.486;2023-08-08T00:34:50;100494.69;;;13.95;61.76
54562;BME280;69047;53.358;-1.486;2023-08-08T00:37:17;100492.53;;;13.97;61.56
54562;BME280;69047;53.358;-1.486;2023-08-08T00:39:42;100495.53;;;13.91;62.00
54562;BME280;69047;53.358;-1.486;2023-08-08T00:42:13;100499.63;;;13.83;62.22
54562;BME280;69047;53.358;-1.486;2023-08-08T00:44:39;100509.16;;;13.80;62.91
54562;BME280;69047;53.358;-1.486;2023-08-08T00:47:10;100502.34;;;13.83;62.82
54562;BME280;69047;53.358;-1.486;2023-08-08T00:49:37;100514.88;;;13.84;62.89
54562;BME280;69047;53.358;-1.486;2023-08-08T00:52:03;100511.06;;;13.85;62.69
54562;BME280;69047;53.358;-1.486;2023-08-08T00:54:29;100511.91;;;13.65;63.27
54562;BME280;69047;53.358;-1.486;2023-08-08T00:56:55;100516.81;;;13.63;63.78
54562;BME280;69047;53.358;-1.486;2023-08-08T00:59:21;100512.47;;;13.67;63.73
54562;BME280;69047;53.358;-1.486;2023-08-08T01:01:46;100515.41;;;13.81;63.25
54562;BME280;69047;53.358;-1.486;2023-08-08T01:04:12;100511.38;;;13.73;63.56
54562;BME280;69047;53.358;-1.486;2023-08-08T01:06:43;100508.88;;;13.77;63.66
54562;BME280;69047;53.358;-1.486;2023-08-08T01:09:15;100496.38;;;13.76;63.70
54562;BME280;69047;53.358;-1.486;2023-08-08T01:11:43;100492.31;;;13.73;63.91
54562;BME280;69047;53.358;-1.486;2023-08-08T01:14:13;100501.56;;;13.67;64.11
54562;BME280;69047;53.358;-1.486;2023-08-08T01:16:42;100499.69;;;13.53;64.84
54562;BME280;69047;53.358;-1.486;2023-08-08T01:19:08;100504.59;;;13.46;64.61
54562;BME280;69047;53.358;-1.486;2023-08-08T01:21:38;100507.03;;;13.52;64.75
54562;BME280;69047;53.358;-1.486;2023-08-08T01:24:21;100487.44;;;13.55;64.89
54562;BME280;69047;53.358;-1.486;2023-08-08T01:26:47;100493.41;;;13.57;64.67
54562;BME280;69047;53.358;-1.486;2023-08-08T01:29:13;100493.44;;;13.32;66.21
54562;BME280;69047;53.358;-1.486;2023-08-08T01:31:38;100491.81;;;13.21;66.11
54562;BME280;69047;53.358;-1.486;2023-08-08T01:34:03;100486.38;;;13.21;66.69
54562;BME280;69047;53.358;-1.486;2023-08-08T01:36:34;100475.50;;;13.36;66.29
54562;BME280;69047;53.358;-1.486;2023-08-08T01:39:01;100472.75;;;13.41;65.80
54562;BME280;69047;53.358;-1.486;2023-08-08T01:41:32;100471.69;;;13.42;65.88
54562;BME280;69047;53.358;-1.486;2023-08-08T01:43:58;100471.94;;;13.46;65.97
54562;BME280;69047;53.358;-1.486;2023-08-08T01:46:24;100471.38;;;13.64;65.34
54562;BME280;69047;53.358;-1.486;2023-08-08T01:48:50;100481.97;;;13.65;65.13
54562;BME280;69047;53.358;-1.486;2023-08-08T01:51:16;100493.41;;;13.62;64.98
54562;BME280;69047;53.358;-1.486;2023-08-08T01:53:42;100478.19;;;13.61;65.23
54562;BME280;69047;53.358;-1.486;2023-08-08T01:56:08;100476.81;;;13.64;65.17
54562;BME280;69047;53.358;-1.486;2023-08-08T01:58:33;100480.91;;;13.56;64.67
54562;BME280;69047;53.358;-1.486;2023-08-08T02:00:59;100487.69;;;13.69;64.54
54562;BME280;69047;53.358;-1.486;2023-08-08T02:03:24;100487.91;;;13.88;63.91
54562;BME280;69047;53.358;-1.486;2023-08-08T02:05:50;100479.72;;;13.93;63.71
54562;BME280;69047;53.358;-1.486;2023-08-08T02:08:15;100480.84;;;13.92;63.83
54562;BME280;69047;53.358;-1.486;2023-08-08T02:10:40;100483.56;;;13.86;64.36
54562;BME280;69047;53.358;-1.486;2023-08-08T02:13:06;100479.41;;;14.04;63.85
54562;BME280;69047;53.358;-1.486;2023-08-08T02:15:31;100465.78;;;14.04;64.09
54562;BME280;69047;53.358;-1.486;2023-08-08T02:17:57;100465.31;;;13.87;64.20
54562;BME280;69047;53.358;-1.486;2023-08-08T02:20:22;100459.00;;;14.02;64.02
54562;BME280;69047;53.358;-1.486;2023-08-08T02:22:48;100452.41;;;14.18;63.64
54562;BME280;69047;53.358;-1.486;2023-08-08T02:25:13;100463.88;;;14.05;63.67
54562;BME280;69047;53.358;-1.486;2023-08-08T02:27:39;100459.47;;;14.19;63.93
54562;BME280;69047;53.358;-1.486;2023-08-08T02:30:04;100459.16;;;14.25;63.21
54562;BME280;69047;53.358;-1.486;2023-08-08T02:32:30;100464.38;;;14.17;63.89
54562;BME280;69047;53.358;-1.486;2023-08-08T02:34:55;100471.97;;;14.25;63.50
54562;BME280;69047;53.358;-1.486;2023-08-08T02:37:21;100465.16;;;14.32;63.29
54562;BME280;69047;53.358;-1.486;2023-08-08T02:39:46;100462.41;;;14.37;63.23
54562;BME280;69047;53.358;-1.486;2023-08-08T02:42:12;100461.06;;;14.25;63.97
54562;BME280;69047;53.358;-1.486;2023-08-08T02:44:37;100459.16;;;14.30;63.64
54562;BME280;69047;53.358;-1.486;2023-08-08T02:47:02;100456.53;;;14.05;64.62
54562;BME280;69047;53.358;-1.486;2023-08-08T02:49:28;100453.91;;;13.75;66.07
54562;BME280;69047;53.358;-1.486;2023-08-08T02:51:54;100455.25;;;13.88;65.83
54562;BME280;69047;53.358;-1.486;2023-08-08T02:54:19;100447.06;;;13.93;65.31
54562;BME280;69047;53.358;-1.486;2023-08-08T02:56:44;100450.03;;;13.96;65.48
54562;BME280;69047;53.358;-1.486;2023-08-08T02:59:10;100445.34;;;14.07;64.57
54562;BME280;69047;53.358;-1.486;2023-08-08T03:01:37;100447.78;;;14.18;64.90
54562;BME280;69047;53.358;-1.486;2023-08-08T03:04:03;100446.50;;;14.01;65.38
54562;BME280;69047;53.358;-1.486;2023-08-08T03:06:28;100444.28;;;14.08;65.13
54562;BME280;69047;53.358;-1.486;2023-08-08T03:08:54;100448.59;;;14.14;65.00
54562;BME280;69047;53.358;-1.486;2023-08-08T03:11:19;100448.03;;;14.17;64.20
54562;BME280;69047;53.358;-1.486;2023-08-08T03:13:44;100447.53;;;14.10;64.17
54562;BME280;69047;53.358;-1.486;2023-08-08T03:16:10;100443.72;;;14.11;65.54
54562;BME280;69047;53.358;-1.486;2023-08-08T03:18:35;100439.91;;;14.12;65.55
54562;BME280;69047;53.358;-1.486;2023-08-08T03:21:00;100448.09;;;14.12;64.52
54562;BME280;69047;53.358;-1.486;2023-08-08T03:23:26;100439.66;;;14.08;64.97
54562;BME280;69047;53.358;-1.486;2023-08-08T03:25:51;100441.91;;;13.86;65.93
54562;BME280;69047;53.358;-1.486;2023-08-08T03:28:17;100432.72;;;13.72;66.07
54562;BME280;69047;53.358;-1.486;2023-08-08T03:30:42;100436.31;;;13.42;67.09
54562;BME280;69047;53.358;-1.486;2023-08-08T03:33:07;100441.75;;;13.32;68.15
54562;BME280;69047;53.358;-1.486;2023-08-08T03:35:33;100432.25;;;12.99;69.19
54562;BME280;69047;53.358;-1.486;2023-08-08T03:37:58;100436.84;;;13.49;67.33
54562;BME280;69047;53.358;-1.486;2023-08-08T03:40:23;100440.41;;;12.94;68.24
54562;BME280;69047;53.358;-1.486;2023-08-08T03:42:49;100435.25;;;13.28;67.98
54562;BME280;69047;53.358;-1.486;2023-08-08T03:45:14;100435.78;;;13.35;68.01
54562;BME280;69047;53.358;-1.486;2023-08-08T03:47:40;100440.69;;;13.28;68.11
54562;BME280;69047;53.358;-1.486;2023-08-08T03:50:07;100441.75;;;13.52;67.40
54562;BME280;69047;53.358;-1.486;2023-08-08T03:52:32;100437.16;;;13.38;67.51
54562;BME280;69047;53.358;-1.486;2023-08-08T03:55:01;100444.19;;;13.54;67.74
54562;BME280;69047;53.358;-1.486;2023-08-08T03:57:26;100438.47;;;13.50;66.89
54562;BME280;69047;53.358;-1.486;2023-08-08T03:59:51;100442.56;;;13.43;66.92
54562;BME280;69047;53.358;-1.486;2023-08-08T04:02:17;100436.06;;;13.28;66.73
54562;BME280;69047;53.358;-1.486;2023-08-08T04:04:42;100429.28;;;13.21;67.58
54562;BME280;69047;53.358;-1.486;2023-08-08T04:07:08;100437.97;;;13.28;67.44
54562;BME280;69047;53.358;-1.486;2023-08-08T04:09:33;100428.97;;;13.02;67.94
54562;BME280;69047;53.358;-1.486;2023-08-08T04:11:58;100421.63;;;13.03;67.94
54562;BME280;69047;53.358;-1.486;2023-08-08T04:14:24;100422.47;;;12.88;68.57
54562;BME280;69047;53.358;-1.486;2023-08-08T04:16:49;100418.13;;;13.22;67.83
54562;BME280;69047;53.358;-1.486;2023-08-08T04:19:14;100415.41;;;12.82;69.00
54562;BME280;69047;53.358;-1.486;2023-08-08T04:21:40;100420.56;;;12.73;69.45
54562;BME280;69047;53.358;-1.486;2023-08-08T04:24:06;100432.78;;;13.37;66.94
54562;BME280;69047;53.358;-1.486;2023-08-08T04:26:33;100434.44;;;13.22;67.49
54562;BME280;69047;53.358;-1.486;2023-08-08T04:28:58;100426.03;;;13.19;67.75
54562;BME280;69047;53.358;-1.486;2023-08-08T04:31:24;100431.72;;;13.22;68.02
54562;BME280;69047;53.358;-1.486;2023-08-08T04:33:51;100420.53;;;13.44;66.96
54562;BME280;69047;53.358;-1.486;2023-08-08T04:36:16;100427.56;;;13.60;66.68
54562;BME280;69047;53.358;-1.486;2023-08-08T04:38:42;100426.44;;;13.76;66.49
54562;BME280;69047;53.358;-1.486;2023-08-08T04:41:07;100422.19;;;13.05;67.97
54562;BME280;69047;53.358;-1.486;2023-08-08T04:43:33;100420.84;;;13.22;68.16
54562;BME280;69047;53.358;-1.486;2023-08-08T04:45:58;100412.41;;;12.84;68.70
54562;BME280;69047;53.358;-1.486;2023-08-08T04:48:23;100422.47;;;13.23;67.88
54562;BME280;69047;53.358;-1.486;2023-08-08T04:50:49;100414.53;;;13.52;66.62
54562;BME280;69047;53.358;-1.486;2023-08-08T04:53:14;100413.09;;;13.75;66.06
54562;BME280;69047;53.358;-1.486;2023-08-08T04:55:39;100408.38;;;13.96;65.87
54562;BME280;69047;53.358;-1.486;2023-08-08T04:58:05;100428.06;;;13.82;66.21
54562;BME280;69047;53.358;-1.486;2023-08-08T05:00:31;100423.59;;;14.02;64.94
54562;BME280;69047;53.358;-1.486;2023-08-08T05:02:56;100420.84;;;14.07;65.10
54562;BME280;69047;53.358;-1.486;2023-08-08T05:05:21;100423.53;;;14.17;66.13
54562;BME280;69047;53.358;-1.486;2023-08-08T05:07:47;100411.78;;;14.26;65.75
54562;BME280;69047;53.358;-1.486;2023-08-08T05:10:12;100416.41;;;14.26;66.02
54562;BME280;69047;53.358;-1.486;2023-08-08T05:12:37;100427.63;;;13.35;67.96
54562;BME280;69047;53.358;-1.486;2023-08-08T05:15:03;100422.63;;;13.77;67.53
54562;BME280;69047;53.358;-1.486;2023-08-08T05:17:30;100429.66;;;13.83;67.71
54562;BME280;69047;53.358;-1.486;2023-08-08T05:19:56;100425.97;;;14.23;66.75
54562;BME280;69047;53.358;-1.486;2023-08-08T05:22:21;100420.56;;;14.18;66.44
54562;BME280;69047;53.358;-1.486;2023-08-08T05:24:47;100418.31;;;14.25;66.98
54562;BME280;69047;53.358;-1.486;2023-08-08T05:27:12;100421.59;;;14.32;66.25
54562;BME280;69047;53.358;-1.486;2023-08-08T05:29:37;100419.13;;;14.26;65.83
54562;BME280;69047;53.358;-1.486;2023-08-08T05:32:03;100411.16;;;14.45;65.67
54562;BME280;69047;53.358;-1.486;2023-08-08T05:34:31;100397.94;;;14.18;67.57
54562;BME280;69047;53.358;-1.486;2023-08-08T05:36:57;100405.25;;;14.27;67.82
54562;BME280;69047;53.358;-1.486;2023-08-08T05:39:22;100399.22;;;14.35;68.46
54562;BME280;69047;53.358;-1.486;2023-08-08T05:41:48;100404.31;;;13.93;69.64
54562;BME280;69047;53.358;-1.486;2023-08-08T05:44:13;100394.66;;;13.57;71.88
54562;BME280;69047;53.358;-1.486;2023-08-08T05:46:38;100404.94;;;14.29;70.66
54562;BME280;69047;53.358;-1.486;2023-08-08T05:49:04;100407.00;;;14.57;69.47
54562;BME280;69047;53.358;-1.486;2023-08-08T05:51:29;100405.47;;;14.41;68.54
54562;BME280;69047;53.358;-1.486;2023-08-08T05:53:55;100396.97;;;14.43;68.68
54562;BME280;69047;53.358;-1.486;2023-08-08T05:56:20;100394.25;;;14.43;68.66
54562;BME280;69047;53.358;-1.486;2023-08-08T05:58:46;100399.16;;;14.46;68.09
54562;BME280;69047;53.358;-1.486;2023-08-08T06:01:11;100397.59;;;14.29;68.20
54562;BME280;69047;53.358;-1.486;2023-08-08T06:03:37;100394.25;;;13.94;69.32
54562;BME280;69047;53.358;-1.486;2023-08-08T06:06:03;100400.78;;;14.47;67.05
54562;BME280;69047;53.358;-1.486;2023-08-08T06:08:29;100389.56;;;14.53;67.87
54562;BME280;69047;53.358;-1.486;2023-08-08T06:10:54;100399.81;;;14.27;68.81
54562;BME280;69047;53.358;-1.486;2023-08-08T06:13:20;100396.31;;;14.17;68.94
54562;BME280;69047;53.358;-1.486;2023-08-08T06:15:45;100394.53;;;14.46;68.50
54562;BME280;69047;53.358;-1.486;2023-08-08T06:18:10;100382.47;;;14.57;68.73
54562;BME280;69047;53.358;-1.486;2023-08-08T06:20:36;100391.41;;;14.63;67.25
54562;BME280;69047;53.358;-1.486;2023-08-08T06:23:01;100379.19;;;14.55;67.75
54562;BME280;69047;53.358;-1.486;2023-08-08T06:25:26;100375.72;;;14.78;66.77
54562;BME280;69047;53.358;-1.486;2023-08-08T06:27:53;100382.88;;;14.74;67.55
54562;BME280;69047;53.358;-1.486;2023-08-08T06:30:18;100377.38;;;14.79;67.17
54562;BME280;69047;53.358;-1.486;2023-08-08T06:32:44;100386.00;;;14.91;67.37
54562;BME280;69047;53.358;-1.486;2023-08-08T06:35:09;100386.75;;;14.68;67.34
54562;BME280;69047;53.358;-1.486;2023-08-08T06:37:35;100389.88;;;14.85;66.71
54562;BME280;69047;53.358;-1.486;2023-08-08T06:40:00;100396.06;;;14.96;65.71
54562;BME280;69047;53.358;-1.486;2023-08-08T06:42:26;100393.09;;;14.92;66.32
54562;BME280;69047;53.358;-1.486;2023-08-08T06:44:51;100393.09;;;14.92;65.81
54562;BME280;69047;53.358;-1.486;2023-08-08T06:47:17;100395.13;;;15.06;66.47
54562;BME280;69047;53.358;-1.486;2023-08-08T06:49:42;100386.13;;;15.34;64.99
54562;BME280;69047;53.358;-1.486;2023-08-08T06:52:08;100387.72;;;15.40;64.97
54562;BME280;69047;53.358;-1.486;2023-08-08T06:54:33;100391.47;;;15.49;64.87
54562;BME280;69047;53.358;-1.486;2023-08-08T06:56:59;100393.56;;;15.57;65.11
54562;BME280;69047;53.358;-1.486;2023-08-08T06:59:25;100387.69;;;15.69;63.48
54562;BME280;69047;53.358;-1.486;2023-08-08T07:01:51;100400.53;;;15.39;65.59
54562;BME280;69047;53.358;-1.486;2023-08-08T07:04:17;100396.00;;;15.59;64.76
54562;BME280;69047;53.358;-1.486;2023-08-08T07:06:43;100389.19;;;15.80;64.44
54562;BME280;69047;53.358;-1.486;2023-08-08T07:09:10;100382.03;;;15.84;64.96
54562;BME280;69047;53.358;-1.486;2023-08-08T07:11:40;100392.44;;;15.82;64.17
54562;BME280;69047;53.358;-1.486;2023-08-08T07:14:05;100390.38;;;15.92;65.30
54562;BME280;69047;53.358;-1.486;2023-08-08T07:16:31;100395.00;;;15.97;63.80
54562;BME280;69047;53.358;-1.486;2023-08-08T07:18:56;100394.69;;;15.98;64.19
54562;BME280;69047;53.358;-1.486;2023-08-08T07:21:22;100393.78;;;15.84;64.89
54562;BME280;69047;53.358;-1.486;2023-08-08T07:23:47;100391.28;;;15.88;65.45
54562;BME280;69047;53.358;-1.486;2023-08-08T07:26:12;100391.91;;;15.56;65.84
54562;BME280;69047;53.358;-1.486;2023-08-08T07:28:38;100390.63;;;15.96;65.42
54562;BME280;69047;53.358;-1.486;2023-08-08T07:31:04;100371.44;;;16.01;63.74
54562;BME280;69047;53.358;-1.486;2023-08-08T07:33:29;100394.16;;;15.96;64.39
54562;BME280;69047;53.358;-1.486;2023-08-08T07:35:55;100394.13;;;15.78;65.18
54562;BME280;69047;53.358;-1.486;2023-08-08T07:38:20;100387.91;;;16.15;64.28
54562;BME280;69047;53.358;-1.486;2023-08-08T07:40:45;100384.72;;;16.08;63.49
54562;BME280;69047;53.358;-1.486;2023-08-08T07:43:11;100380.81;;;15.71;65.40
54562;BME280;69047;53.358;-1.486;2023-08-08T07:45:36;100386.63;;;15.88;64.81
54562;BME280;69047;53.358;-1.486;2023-08-08T07:48:03;100378.81;;;15.58;65.60
54562;BME280;69047;53.358;-1.486;2023-08-08T07:50:28;100379.63;;;15.82;64.84
54562;BME280;69047;53.358;-1.486;2023-08-08T07:52:54;100383.56;;;16.32;64.56
54562;BME280;69047;53.358;-1.486;2023-08-08T07:55:19;100388.59;;;16.44;64.08
54562;BME280;69047;53.358;-1.486;2023-08-08T07:57:45;100377.97;;;16.61;62.38
54562;BME280;69047;53.358;-1.486;2023-08-08T08:00:11;100384.84;;;16.58;62.62
54562;BME280;69047;53.358;-1.486;2023-08-08T08:02:38;100381.97;;;16.69;62.04
54562;BME280;69047;53.358;-1.486;2023-08-08T08:05:04;100385.16;;;16.57;62.62
54562;BME280;69047;53.358;-1.486;2023-08-08T08:07:36;100388.22;;;16.50;62.75
54562;BME280;69047;53.358;-1.486;2023-08-08T08:10:03;100385.22;;;16.33;63.20
54562;BME280;69047;53.358;-1.486;2023-08-08T08:12:30;100382.16;;;16.53;62.82
54562;BME280;69047;53.358;-1.486;2023-08-08T08:14:55;100377.50;;;16.73;62.98
54562;BME280;69047;53.358;-1.486;2023-08-08T08:17:21;100373.81;;;16.64;62.29
54562;BME280;69047;53.358;-1.486;2023-08-08T08:19:46;100370.56;;;16.80;62.11
54562;BME280;69047;53.358;-1.486;2023-08-08T08:22:12;100371.94;;;16.96;61.04
54562;BME280;69047;53.358;-1.486;2023-08-08T08:24:37;100366.53;;;16.91;59.52
54562;BME280;69047;53.358;-1.486;2023-08-08T08:27:02;100369.25;;;16.59;61.88
54562;BME280;69047;53.358;-1.486;2023-08-08T08:29:28;100373.97;;;16.53;61.81
54562;BME280;69047;53.358;-1.486;2023-08-08T08:31:53;100372.59;;;16.88;61.58
54562;BME280;69047;53.358;-1.486;2023-08-08T08:34:19;100378.50;;;16.95;60.13
54562;BME280;69047;53.358;-1.486;2023-08-08T08:36:44;100379.50;;;16.67;61.58
54562;BME280;69047;53.358;-1.486;2023-08-08T08:39:09;100374.75;;;16.73;60.86
54562;BME280;69047;53.358;-1.486;2023-08-08T08:41:35;100383.31;;;16.85;60.01
54562;BME280;69047;53.358;-1.486;2023-08-08T08:44:03;100366.63;;;16.49;61.85
54562;BME280;69047;53.358;-1.486;2023-08-08T08:46:29;100357.94;;;16.47;61.54
54562;BME280;69047;53.358;-1.486;2023-08-08T08:48:58;100356.22;;;16.14;62.70
54562;BME280;69047;53.358;-1.486;2023-08-08T08:51:25;100355.72;;;16.68;61.46
54562;BME280;69047;53.358;-1.486;2023-08-08T08:53:51;100354.38;;;16.97;60.18
54562;BME280;69047;53.358;-1.486;2023-08-08T08:56:17;100360.47;;;16.94;60.16
54562;BME280;69047;53.358;-1.486;2023-08-08T08:58:44;100370.25;;;17.28;59.42
54562;BME280;69047;53.358;-1.486;2023-08-08T09:01:09;100356.84;;;17.12;58.79
54562;BME280;69047;53.358;-1.486;2023-08-08T09:03:36;100362.84;;;17.28;57.69
54562;BME280;69047;53.358;-1.486;2023-08-08T09:06:02;100358.50;;;17.27;58.94
54562;BME280;69047;53.358;-1.486;2023-08-08T09:08:28;100352.44;;;17.44;58.25
54562;BME280;69047;53.358;-1.486;2023-08-08T09:10:54;100351.41;;;17.40;58.86
54562;BME280;69047;53.358;-1.486;2023-08-08T09:13:21;100346.16;;;17.57;58.28
54562;BME280;69047;53.358;-1.486;2023-08-08T09:15:48;100342.22;;;17.63;58.28
54562;BME280;69047;53.358;-1.486;2023-08-08T09:18:16;100343.31;;;17.76;57.94
54562;BME280;69047;53.358;-1.486;2023-08-08T09:20:49;100345.94;;;17.53;58.58
54562;BME280;69047;53.358;-1.486;2023-08-08T09:23:15;100348.38;;;17.68;59.25
54562;BME280;69047;53.358;-1.486;2023-08-08T09:25:40;100328.00;;;17.88;57.43
54562;BME280;69047;53.358;-1.486;2023-08-08T09:28:06;100341.25;;;17.54;57.20
54562;BME280;69047;53.358;-1.486;2023-08-08T09:30:31;100330.22;;;17.86;56.87
54562;BME280;69047;53.358;-1.486;2023-08-08T09:33:02;100327.63;;;17.67;57.55
54562;BME280;69047;53.358;-1.486;2023-08-08T09:35:30;100321.69;;;17.88;55.59
54562;BME280;69047;53.358;-1.486;2023-08-08T09:37:56;100323.53;;;17.79;55.74
54562;BME280;69047;53.358;-1.486;2023-08-08T09:40:23;100323.81;;;17.77;55.72
54562;BME280;69047;53.358;-1.486;2023-08-08T09:42:51;100323.94;;;17.86;55.53
54562;BME280;69047;53.358;-1.486;2023-08-08T09:45:16;100329.31;;;17.77;56.34
54562;BME280;69047;53.358;-1.486;2023-08-08T09:47:42;100321.78;;;17.96;55.26
54562;BME280;69047;53.358;-1.486;2023-08-08T09:50:08;100332.88;;;17.64;55.76
54562;BME280;69047;53.358;-1.486;2023-08-08T09:52:34;100334.16;;;17.94;55.04
54562;BME280;69047;53.358;-1.486;2023-08-08T09:55:01;100328.03;;;17.61;56.17
54562;BME280;69047;53.358;-1.486;2023-08-08T09:57:28;100323.81;;;17.91;54.82
54562;BME280;69047;53.358;-1.486;2023-08-08T09:59:55;100319.81;;;18.10;56.26
54562;BME280;69047;53.358;-1.486;2023-08-08T10:02:21;100320.19;;;18.17;54.99
54562;BME280;69047;53.358;-1.486;2023-08-08T10:04:47;100318.41;;;18.35;55.28
54562;BME280;69047;53.358;-1.486;2023-08-08T10:07:12;100311.34;;;18.56;54.44
54562;BME280;69047;53.358;-1.486;2023-08-08T10:09:38;100304.41;;;18.37;54.08
54562;BME280;69047;53.358;-1.486;2023-08-08T10:12:07;100313.03;;;18.66;54.07
54562;BME280;69047;53.358;-1.486;2023-08-08T10:14:36;100314.81;;;18.48;52.99
54562;BME280;69047;53.358;-1.486;2023-08-08T10:17:04;100327.31;;;18.41;53.49
54562;BME280;69047;53.358;-1.486;2023-08-08T10:19:29;100324.44;;;18.46;53.66
54562;BME280;69047;53.358;-1.486;2023-08-08T10:21:57;100323.47;;;18.42;53.02
54562;BME280;69047;53.358;-1.486;2023-08-08T10:24:23;100327.38;;;18.27;53.07
54562;BME280;69047;53.358;-1.486;2023-08-08T10:26:57;100331.47;;;18.16;53.34
54562;BME280;69047;53.358;-1.486;2023-08-08T10:29:26;100338.16;;;18.10;53.68
54562;BME280;69047;53.358;-1.486;2023-08-08T10:32:02;100345.31;;;17.97;54.38
54562;BME280;69047;53.358;-1.486;2023-08-08T10:34:44;100344.38;;;18.02;53.80
54562;BME280;69047;53.358;-1.486;2023-08-08T10:37:17;100350.84;;;18.19;54.18
54562;BME280;69047;53.358;-1.486;2023-08-08T10:39:53;100361.34;;;18.04;55.11
54562;BME280;69047;53.358;-1.486;2023-08-08T10:42:20;100342.53;;;18.11;54.22
54562;BME280;69047;53.358;-1.486;2023-08-08T10:44:56;100335.34;;;18.01;55.62
54562;BME280;69047;53.358;-1.486;2023-08-08T10:47:26;100328.84;;;18.11;53.73
54562;BME280;69047;53.358;-1.486;2023-08-08T10:52:51;100310.88;;;18.41;54.56
54562;BME280;69047;53.358;-1.486;2023-08-08T10:55:20;100313.97;;;18.25;54.44
54562;BME280;69047;53.358;-1.486;2023-08-08T11:00:20;100315.94;;;18.47;53.58
54562;BME280;69047;53.358;-1.486;2023-08-08T11:02:46;100309.94;;;18.45;53.54
54562;BME280;69047;53.358;-1.486;2023-08-08T11:05:12;100305.91;;;18.43;53.41
54562;BME280;69047;53.358;-1.486;2023-08-08T11:07:38;100302.16;;;18.39;53.17
54562;BME280;69047;53.358;-1.486;2023-08-08T11:10:04;100291.25;;;18.47;53.57
54562;BME280;69047;53.358;-1.486;2023-08-08T11:12:29;100289.56;;;18.38;53.04
54562;BME280;69047;53.358;-1.486;2023-08-08T11:14:55;100294.88;;;18.56;52.97
54562;BME280;69047;53.358;-1.486;2023-08-08T11:17:20;100295.84;;;18.38;52.85
54562;BME280;69047;53.358;-1.486;2023-08-08T11:19:45;100293.78;;;18.57;52.88
54562;BME280;69047;53.358;-1.486;2023-08-08T11:22:11;100296.38;;;18.62;53.24
54562;BME280;69047;53.358;-1.486;2023-08-08T11:24:36;100295.31;;;19.03;53.41
54562;BME280;69047;53.358;-1.486;2023-08-08T11:27:02;100300.72;;;18.86;52.32
54562;BME280;69047;53.358;-1.486;2023-08-08T11:29:27;100306.75;;;18.96;52.77
54562;BME280;69047;53.358;-1.486;2023-08-08T11:31:56;100312.00;;;18.84;52.03
54562;BME280;69047;53.358;-1.486;2023-08-08T11:34:22;100295.09;;;18.91;53.00
54562;BME280;69047;53.358;-1.486;2023-08-08T11:36:48;100290.78;;;18.98;53.43
54562;BME280;69047;53.358;-1.486;2023-08-08T11:39:13;100284.81;;;18.96;53.11
54562;BME280;69047;53.358;-1.486;2023-08-08T11:41:40;100290.03;;;19.15;53.17
54562;BME280;69047;53.358;-1.486;2023-08-08T11:44:06;100289.56;;;19.13;52.22
54562;BME280;69047;53.358;-1.486;2023-08-08T11:46:33;100285.00;;;19.39;52.24
54562;BME280;69047;53.358;-1.486;2023-08-08T11:49:03;100290.03;;;19.54;52.48
54562;BME280;69047;53.358;-1.486;2023-08-08T11:51:29;100278.16;;;19.37;52.53
54562;BME280;69047;53.358;-1.486;2023-08-08T11:53:54;100269.03;;;19.10;52.96
54562;BME280;69047;53.358;-1.486;2023-08-08T11:56:20;100275.03;;;19.21;54.22
54562;BME280;69047;53.358;-1.486;2023-08-08T11:58:49;100266.69;;;19.26;53.56
54562;BME280;69047;53.358;-1.486;2023-08-08T12:01:15;100273.78;;;19.35;52.08
54562;BME280;69047;53.358;-1.486;2023-08-08T12:03:42;100268.31;;;19.35;53.03
54562;BME280;69047;53.358;-1.486;2023-08-08T12:06:14;100263.97;;;19.34;53.00
54562;BME280;69047;53.358;-1.486;2023-08-08T12:08:44;100261.94;;;19.49;54.56
54562;BME280;69047;53.358;-1.486;2023-08-08T12:11:11;100255.50;;;19.62;52.47
54562;BME280;69047;53.358;-1.486;2023-08-08T12:13:38;100257.25;;;19.49;52.52
54562;BME280;69047;53.358;-1.486;2023-08-08T12:16:06;100251.09;;;19.44;53.04
54562;BME280;69047;53.358;-1.486;2023-08-08T12:18:31;100254.97;;;19.12;53.98
54562;BME280;69047;53.358;-1.486;2023-08-08T12:20:57;100247.84;;;19.42;53.36
54562;BME280;69047;53.358;-1.486;2023-08-08T12:23:23;100245.16;;;19.67;51.51
54562;BME280;69047;53.358;-1.486;2023-08-08T12:25:48;100253.03;;;19.52;50.84
54562;BME280;69047;53.358;-1.486;2023-08-08T12:28:13;100251.69;;;19.32;52.42
54562;BME280;69047;53.358;-1.486;2023-08-08T12:30:39;100247.09;;;19.67;53.38
54562;BME280;69047;53.358;-1.486;2023-08-08T12:33:04;100255.31;;;19.50;52.57
54562;BME280;69047;53.358;-1.486;2023-08-08T12:35:30;100257.63;;;19.73;52.61
54562;BME280;69047;53.358;-1.486;2023-08-08T12:37:55;100255.38;;;20.18;54.79
54562;BME280;69047;53.358;-1.486;2023-08-08T12:40:21;100257.00;;;20.36;51.77